createdAt,value
2017-03-07T00:00:07.515Z,0
2017-03-07T00:00:56.118Z,0
2017-03-07T00:01:45.318Z,0
2017-03-07T00:02:33.596Z,0
2017-03-07T00:03:22.818Z,0
2017-03-07T00:04:11.236Z,0
2017-03-07T00:05:00.190Z,0
2017-03-07T00:05:48.519Z,0
2017-03-07T00:06:37.901Z,0
2017-03-07T00:07:26.388Z,0
2017-03-07T00:08:14.836Z,0
2017-03-07T00:09:03.757Z,0
2017-03-07T00:09:52.218Z,0
2017-03-07T00:10:41.320Z,0
2017-03-07T00:11:29.588Z,0
2017-03-07T00:12:18.146Z,0
2017-03-07T00:13:07.031Z,0
2017-03-07T00:13:55.864Z,0
2017-03-07T00:14:44.511Z,0
2017-03-07T00:15:33.014Z,0
2017-03-07T00:16:22.288Z,0
2017-03-07T00:17:10.560Z,0
2017-03-07T00:17:59.763Z,0
2017-03-07T00:18:48.376Z,0
2017-03-07T00:19:36.935Z,0
2017-03-07T00:20:25.462Z,0
2017-03-07T00:21:14.414Z,0
2017-03-07T00:22:03.276Z,0
2017-03-07T00:22:51.771Z,0
2017-03-07T00:23:40.615Z,0
2017-03-07T00:24:28.987Z,0
2017-03-07T00:25:17.672Z,0
2017-03-07T00:26:06.768Z,0
2017-03-07T00:26:55.041Z,0
2017-03-07T00:27:43.852Z,0
2017-03-07T00:28:32.387Z,0
2017-03-07T00:29:21.016Z,0
2017-03-07T00:30:10.295Z,0
2017-03-07T00:30:58.972Z,0
2017-03-07T00:31:47.847Z,0
2017-03-07T00:32:36.267Z,0
2017-03-07T00:33:24.859Z,0
2017-03-07T00:34:13.911Z,0
2017-03-07T00:35:02.395Z,0
2017-03-07T00:35:51.001Z,0
2017-03-07T00:36:39.883Z,0
2017-03-07T00:37:28.053Z,0
2017-03-07T00:38:16.966Z,0
2017-03-07T00:39:05.719Z,0
2017-03-07T00:39:54.864Z,0
2017-03-07T00:40:43.119Z,0
2017-03-07T00:41:31.841Z,0
2017-03-07T00:42:20.759Z,0
2017-03-07T00:43:09.406Z,0
2017-03-07T00:43:58.259Z,0
2017-03-07T00:44:46.624Z,0
2017-03-07T00:45:35.113Z,0
2017-03-07T00:46:24.357Z,0
2017-03-07T00:47:12.697Z,0
2017-03-07T00:48:01.136Z,0
2017-03-07T00:48:50.230Z,0
2017-03-07T00:49:38.680Z,0
2017-03-07T00:50:27.433Z,0
2017-03-07T00:51:15.878Z,0
2017-03-07T00:52:04.630Z,0
2017-03-07T00:52:53.518Z,0
2017-03-07T00:53:42.132Z,0
2017-03-07T00:54:31.229Z,0
2017-03-07T00:55:19.582Z,0
2017-03-07T00:56:08.893Z,0
2017-03-07T00:56:57.860Z,0
2017-03-07T00:57:46.002Z,0
2017-03-07T00:58:34.629Z,0
2017-03-07T00:59:23.483Z,0
2017-03-07T01:00:12.098Z,0
2017-03-07T01:01:00.925Z,0
2017-03-07T01:01:49.394Z,0
2017-03-07T01:02:38.139Z,0
2017-03-07T01:03:26.786Z,0
2017-03-07T01:04:15.875Z,0
2017-03-07T01:05:04.580Z,0
2017-03-07T01:05:52.911Z,0
2017-03-07T01:06:41.487Z,0
2017-03-07T01:07:30.518Z,0
2017-03-07T01:08:18.955Z,0
2017-03-07T01:09:12.779Z,0
2017-03-07T01:10:01.101Z,0
2017-03-07T01:10:49.872Z,0
2017-03-07T01:11:38.760Z,0
2017-03-07T01:12:27.150Z,0
2017-03-07T01:13:15.659Z,0
2017-03-07T01:14:04.444Z,0
2017-03-07T01:14:53.110Z,0
2017-03-07T01:15:41.947Z,0
2017-03-07T01:16:30.894Z,0
2017-03-07T01:17:19.163Z,0
2017-03-07T01:18:08.227Z,0
2017-03-07T01:18:56.607Z,0
2017-03-07T01:19:45.610Z,0
2017-03-07T01:20:34.099Z,0
2017-03-07T01:21:23.112Z,0
2017-03-07T01:22:11.284Z,0
2017-03-07T01:23:00.655Z,0
2017-03-07T01:23:49.371Z,0
2017-03-07T01:24:37.647Z,0
2017-03-07T01:25:26.837Z,0
2017-03-07T01:26:15.272Z,0
2017-03-07T01:27:03.730Z,0
2017-03-07T01:27:52.896Z,0
2017-03-07T01:28:41.166Z,0
2017-03-07T01:29:29.979Z,0
2017-03-07T01:30:18.762Z,0
2017-03-07T01:31:07.164Z,0
2017-03-07T01:31:55.665Z,0
2017-03-07T01:32:44.643Z,0
2017-03-07T01:33:33.133Z,0
2017-03-07T01:34:22.319Z,0
2017-03-07T01:35:10.639Z,0
2017-03-07T01:35:59.141Z,0
2017-03-07T01:36:48.032Z,0
2017-03-07T01:37:36.611Z,0
2017-03-07T01:38:25.840Z,0
2017-03-07T01:39:14.082Z,0
2017-03-07T01:40:03.237Z,0
2017-03-07T01:40:51.577Z,0
2017-03-07T01:41:40.409Z,0
2017-03-07T01:42:29.277Z,0
2017-03-07T01:43:17.603Z,0
2017-03-07T01:44:06.629Z,0
2017-03-07T01:44:55.389Z,0
2017-03-07T01:45:43.670Z,0
2017-03-07T01:46:32.409Z,0
2017-03-07T01:47:21.029Z,0
2017-03-07T01:48:09.671Z,0
2017-03-07T01:48:58.332Z,0
2017-03-07T01:49:47.252Z,0
2017-03-07T01:50:36.350Z,0
2017-03-07T01:51:24.486Z,0
2017-03-07T01:52:13.432Z,0
2017-03-07T01:53:01.880Z,0
2017-03-07T01:53:50.791Z,0
2017-03-07T01:54:36.075Z,0
2017-03-07T01:55:16.556Z,0
2017-03-07T01:55:57.065Z,0
2017-03-07T01:56:37.524Z,0
2017-03-07T01:57:18.060Z,0
2017-03-07T01:57:58.515Z,0
2017-03-07T01:58:38.976Z,0
2017-03-07T01:59:19.509Z,0
2017-03-07T01:59:59.923Z,0
2017-03-07T02:00:40.455Z,0
2017-03-07T02:01:20.943Z,0
2017-03-07T02:02:01.518Z,0
2017-03-07T02:02:41.953Z,0
2017-03-07T02:03:22.449Z,0
2017-03-07T02:04:02.918Z,0
2017-03-07T02:04:43.447Z,0
2017-03-07T02:05:23.908Z,0
2017-03-07T02:06:04.376Z,0
2017-03-07T02:06:44.881Z,0
2017-03-07T02:07:25.346Z,0
2017-03-07T02:08:05.880Z,0
2017-03-07T02:08:46.312Z,0
2017-03-07T02:09:26.848Z,0
2017-03-07T02:10:07.336Z,0
2017-03-07T02:10:47.836Z,0
2017-03-07T02:11:28.285Z,0
2017-03-07T02:12:08.749Z,0
2017-03-07T02:12:49.260Z,0
2017-03-07T02:13:29.847Z,0
2017-03-07T02:14:10.314Z,0
2017-03-07T02:14:50.806Z,0
2017-03-07T02:15:31.356Z,0
2017-03-07T02:16:11.809Z,0
2017-03-07T02:16:52.292Z,0
2017-03-07T02:17:32.793Z,0
2017-03-07T02:18:13.344Z,0
2017-03-07T02:18:53.751Z,0
2017-03-07T02:19:34.310Z,0
2017-03-07T02:20:14.797Z,0
2017-03-07T02:20:55.299Z,0
2017-03-07T02:21:35.862Z,0
2017-03-07T02:22:16.300Z,0
2017-03-07T02:22:56.781Z,0
2017-03-07T02:23:37.271Z,0
2017-03-07T02:24:17.772Z,0
2017-03-07T02:24:58.279Z,0
2017-03-07T02:25:38.741Z,0
2017-03-07T02:26:19.250Z,0
2017-03-07T02:26:59.725Z,0
2017-03-07T02:27:40.186Z,0
2017-03-07T02:28:20.723Z,0
2017-03-07T02:29:01.159Z,0
2017-03-07T02:29:41.709Z,0
2017-03-07T02:30:22.179Z,0
2017-03-07T02:31:02.665Z,0
2017-03-07T02:31:43.142Z,0
2017-03-07T02:32:23.653Z,0
2017-03-07T02:33:04.092Z,0
2017-03-07T02:33:44.655Z,0
2017-03-07T02:34:25.071Z,0
2017-03-07T02:35:05.582Z,0
2017-03-07T02:35:46.021Z,0
2017-03-07T02:36:26.583Z,0
2017-03-07T02:37:07.044Z,0
2017-03-07T02:37:47.472Z,0
2017-03-07T02:38:28.014Z,0
2017-03-07T02:39:08.693Z,0
2017-03-07T02:39:49.265Z,0
2017-03-07T02:40:29.764Z,0
2017-03-07T02:41:10.296Z,0
2017-03-07T02:41:50.811Z,0
2017-03-07T02:42:31.266Z,0
2017-03-07T02:43:11.885Z,0
2017-03-07T02:43:52.313Z,0
2017-03-07T02:44:33.057Z,0
2017-03-07T02:45:13.336Z,0
2017-03-07T02:45:53.840Z,0
2017-03-07T02:46:34.294Z,0
2017-03-07T02:47:14.768Z,0
2017-03-07T02:47:55.248Z,0
2017-03-07T02:48:35.772Z,0
2017-03-07T02:49:16.355Z,0
2017-03-07T02:49:56.839Z,0
2017-03-07T02:50:37.300Z,0
2017-03-07T02:51:17.851Z,0
2017-03-07T02:51:58.316Z,0
2017-03-07T02:52:38.760Z,0
2017-03-07T02:53:19.407Z,0
2017-03-07T02:53:59.867Z,0
2017-03-07T02:54:40.375Z,0
2017-03-07T02:55:20.899Z,0
2017-03-07T02:56:01.320Z,0
2017-03-07T02:56:41.790Z,0
2017-03-07T02:57:22.307Z,0
2017-03-07T02:58:02.784Z,0
2017-03-07T02:58:43.243Z,0
2017-03-07T02:59:23.842Z,0
2017-03-07T03:00:04.363Z,0
2017-03-07T03:00:44.837Z,0
2017-03-07T03:01:25.310Z,0
2017-03-07T03:02:05.806Z,0
2017-03-07T03:02:46.376Z,0
2017-03-07T03:03:26.814Z,0
2017-03-07T03:04:07.276Z,0
2017-03-07T03:04:47.745Z,0
2017-03-07T03:05:28.211Z,0
2017-03-07T03:06:08.749Z,0
2017-03-07T03:06:49.189Z,0
2017-03-07T03:07:29.685Z,0
2017-03-07T03:08:10.201Z,0
2017-03-07T03:08:50.641Z,0
2017-03-07T03:09:31.144Z,0
2017-03-07T03:10:11.626Z,0
2017-03-07T03:10:52.133Z,0
2017-03-07T03:11:32.590Z,0
2017-03-07T03:12:13.093Z,0
2017-03-07T03:12:53.891Z,0
2017-03-07T03:13:34.398Z,0
2017-03-07T03:14:14.864Z,0
2017-03-07T03:14:55.394Z,0
2017-03-07T03:15:35.859Z,0
2017-03-07T03:16:16.369Z,0
2017-03-07T03:16:56.875Z,0
2017-03-07T03:17:37.424Z,0
2017-03-07T03:18:17.922Z,0
2017-03-07T03:18:58.403Z,0
2017-03-07T03:19:38.832Z,0
2017-03-07T03:20:19.318Z,0
2017-03-07T03:20:59.820Z,0
2017-03-07T03:21:40.269Z,0
2017-03-07T03:22:20.780Z,0
2017-03-07T03:23:01.406Z,0
2017-03-07T03:23:41.823Z,0
2017-03-07T03:24:22.345Z,0
2017-03-07T03:25:02.847Z,0
2017-03-07T03:25:43.333Z,0
2017-03-07T03:26:23.843Z,0
2017-03-07T03:27:04.346Z,0
2017-03-07T03:27:44.835Z,0
2017-03-07T03:28:25.316Z,0
2017-03-07T03:29:05.802Z,0
2017-03-07T03:29:46.323Z,0
2017-03-07T03:30:26.874Z,0
2017-03-07T03:31:07.339Z,0
2017-03-07T03:31:47.868Z,0
2017-03-07T03:32:28.341Z,0
2017-03-07T03:33:09.000Z,0
2017-03-07T03:33:49.435Z,0
2017-03-07T03:34:29.983Z,0
2017-03-07T03:35:10.389Z,0
2017-03-07T03:35:50.943Z,0
2017-03-07T03:36:31.481Z,0
2017-03-07T03:37:11.968Z,0
2017-03-07T03:37:52.396Z,0
2017-03-07T03:38:32.930Z,0
2017-03-07T03:39:13.433Z,0
2017-03-07T03:39:53.987Z,0
2017-03-07T03:40:34.422Z,0
2017-03-07T03:41:14.955Z,0
2017-03-07T03:41:55.490Z,0
2017-03-07T03:42:35.992Z,0
2017-03-07T03:43:16.502Z,0
2017-03-07T03:43:56.961Z,0
2017-03-07T03:44:37.416Z,0
2017-03-07T03:45:17.889Z,0
2017-03-07T03:45:58.404Z,0
2017-03-07T03:46:39.914Z,0
2017-03-07T03:47:20.388Z,0
2017-03-07T03:48:00.904Z,0
2017-03-07T03:48:41.486Z,0
2017-03-07T03:49:21.931Z,0
2017-03-07T03:50:02.464Z,0
2017-03-07T03:50:42.899Z,0
2017-03-07T03:51:23.382Z,0
2017-03-07T03:52:03.957Z,0
2017-03-07T03:52:44.345Z,0
2017-03-07T03:53:24.838Z,0
2017-03-07T03:54:05.300Z,0
2017-03-07T03:54:45.879Z,0
2017-03-07T03:55:26.352Z,0
2017-03-07T03:56:06.856Z,0
2017-03-07T03:56:47.322Z,0
2017-03-07T03:57:27.819Z,0
2017-03-07T03:58:08.293Z,0
2017-03-07T03:58:48.831Z,0
2017-03-07T03:59:29.368Z,0
2017-03-07T04:00:09.827Z,0
2017-03-07T04:00:50.322Z,0
2017-03-07T04:01:30.794Z,0
2017-03-07T04:02:11.262Z,0
2017-03-07T04:02:51.756Z,0
2017-03-07T04:03:32.242Z,0
2017-03-07T04:04:12.736Z,0
2017-03-07T04:04:53.252Z,0
2017-03-07T04:05:33.782Z,0
2017-03-07T04:06:14.280Z,0
2017-03-07T04:06:54.722Z,0
2017-03-07T04:07:35.298Z,0
2017-03-07T04:08:15.749Z,0
2017-03-07T04:08:56.218Z,0
2017-03-07T04:09:36.730Z,0
2017-03-07T04:10:17.227Z,0
2017-03-07T04:10:57.720Z,0
2017-03-07T04:11:38.174Z,0
2017-03-07T04:12:18.654Z,0
2017-03-07T04:12:59.211Z,0
2017-03-07T04:13:39.711Z,0
2017-03-07T04:14:20.162Z,0
2017-03-07T04:15:00.706Z,0
2017-03-07T04:15:41.208Z,0
2017-03-07T04:16:21.766Z,0
2017-03-07T04:17:02.277Z,0
2017-03-07T04:17:42.752Z,0
2017-03-07T04:18:23.218Z,0
2017-03-07T04:19:03.731Z,0
2017-03-07T04:19:44.165Z,0
2017-03-07T04:20:24.679Z,0
2017-03-07T04:21:05.169Z,0
2017-03-07T04:21:45.646Z,0
2017-03-07T04:22:26.133Z,0
2017-03-07T04:23:06.642Z,0
2017-03-07T04:23:47.116Z,0
2017-03-07T04:24:27.573Z,0
2017-03-07T04:25:08.154Z,0
2017-03-07T04:25:48.600Z,0
2017-03-07T04:26:29.125Z,0
2017-03-07T04:27:10.199Z,0
2017-03-07T04:27:50.695Z,0
2017-03-07T04:28:31.170Z,0
2017-03-07T04:29:11.682Z,0
2017-03-07T04:29:52.183Z,0
2017-03-07T04:30:32.644Z,0
2017-03-07T04:31:13.178Z,0
2017-03-07T04:31:53.631Z,0
2017-03-07T04:32:34.469Z,0
2017-03-07T04:33:14.852Z,0
2017-03-07T04:33:55.383Z,0
2017-03-07T04:34:35.887Z,0
2017-03-07T04:35:16.427Z,0
2017-03-07T04:35:56.902Z,0
2017-03-07T04:36:37.398Z,0
2017-03-07T04:37:17.845Z,0
2017-03-07T04:37:58.338Z,0
2017-03-07T04:38:38.887Z,0
2017-03-07T04:39:19.292Z,0
2017-03-07T04:39:59.865Z,0
2017-03-07T04:40:40.271Z,0
2017-03-07T04:41:20.804Z,0
2017-03-07T04:42:01.328Z,0
2017-03-07T04:42:41.812Z,0
2017-03-07T04:43:22.284Z,0
2017-03-07T04:44:02.819Z,0
2017-03-07T04:44:43.367Z,0
2017-03-07T04:45:23.833Z,0
2017-03-07T04:46:04.293Z,0
2017-03-07T04:46:44.812Z,0
2017-03-07T04:47:25.296Z,0
2017-03-07T04:48:05.815Z,0
2017-03-07T04:48:46.333Z,0
2017-03-07T04:49:26.806Z,0
2017-03-07T04:50:07.321Z,0
2017-03-07T04:50:47.851Z,0
2017-03-07T04:51:28.400Z,0
2017-03-07T04:52:08.834Z,0
2017-03-07T04:52:49.370Z,0
2017-03-07T04:53:29.855Z,0
2017-03-07T04:54:10.402Z,0
2017-03-07T04:54:50.850Z,0
2017-03-07T04:55:31.295Z,0
2017-03-07T04:56:11.831Z,0
2017-03-07T04:56:52.489Z,0
2017-03-07T04:57:32.975Z,0
2017-03-07T04:58:13.434Z,0
2017-03-07T04:58:53.982Z,0
2017-03-07T04:59:34.479Z,0
2017-03-07T05:00:14.951Z,0
2017-03-07T05:00:55.482Z,0
2017-03-07T05:01:35.959Z,0
2017-03-07T05:02:16.433Z,0
2017-03-07T05:02:56.959Z,0
2017-03-07T05:03:37.383Z,0
2017-03-07T05:04:17.929Z,0
2017-03-07T05:04:58.494Z,0
2017-03-07T05:05:38.935Z,0
2017-03-07T05:06:19.425Z,0
2017-03-07T05:06:59.893Z,0
2017-03-07T05:07:40.414Z,0
2017-03-07T05:08:20.895Z,0
2017-03-07T05:09:01.341Z,0
2017-03-07T05:09:41.975Z,0
2017-03-07T05:10:22.519Z,0
2017-03-07T05:11:03.121Z,0
2017-03-07T05:11:43.588Z,0
2017-03-07T05:12:24.118Z,0
2017-03-07T05:13:04.566Z,0
2017-03-07T05:13:45.066Z,0
2017-03-07T05:14:25.594Z,0
2017-03-07T05:15:06.100Z,0
2017-03-07T05:15:46.545Z,0
2017-03-07T05:16:27.112Z,0
2017-03-07T05:17:07.573Z,0
2017-03-07T05:17:48.048Z,0
2017-03-07T05:18:28.540Z,0
2017-03-07T05:19:09.055Z,0
2017-03-07T05:19:49.508Z,0
2017-03-07T05:20:29.992Z,0
2017-03-07T05:21:10.548Z,0
2017-03-07T05:21:51.031Z,0
2017-03-07T05:22:31.478Z,0
2017-03-07T05:23:12.011Z,0
2017-03-07T05:23:52.536Z,0
2017-03-07T05:24:33.043Z,0
2017-03-07T05:25:13.598Z,0
2017-03-07T05:25:54.718Z,0
2017-03-07T05:26:34.610Z,0
2017-03-07T05:27:15.383Z,0
2017-03-07T05:27:55.855Z,0
2017-03-07T05:28:36.294Z,0
2017-03-07T05:29:16.790Z,0
2017-03-07T05:29:57.324Z,0
2017-03-07T05:30:37.804Z,0
2017-03-07T05:31:18.290Z,0
2017-03-07T05:31:58.777Z,0
2017-03-07T05:32:39.335Z,0
2017-03-07T05:33:20.036Z,0
2017-03-07T05:34:00.463Z,4
2017-03-07T05:34:40.977Z,4
2017-03-07T05:35:21.574Z,0
2017-03-07T05:36:02.180Z,4
2017-03-07T05:36:42.557Z,4
2017-03-07T05:37:23.057Z,0
2017-03-07T05:38:03.624Z,4
2017-03-07T05:38:44.152Z,4
2017-03-07T05:39:24.649Z,4
2017-03-07T05:40:05.137Z,4
2017-03-07T05:40:45.622Z,4
2017-03-07T05:41:26.177Z,8
2017-03-07T05:42:06.634Z,4
2017-03-07T05:42:47.126Z,8
2017-03-07T05:43:27.604Z,8
2017-03-07T05:44:08.186Z,12
2017-03-07T05:44:48.652Z,12
2017-03-07T05:45:29.075Z,12
2017-03-07T05:46:09.641Z,16
2017-03-07T05:46:50.149Z,12
2017-03-07T05:47:30.617Z,16
2017-03-07T05:48:11.163Z,16
2017-03-07T05:48:51.632Z,16
2017-03-07T05:49:32.081Z,16
2017-03-07T05:50:12.693Z,12
2017-03-07T05:50:53.183Z,16
2017-03-07T05:51:33.728Z,16
2017-03-07T05:52:14.194Z,16
2017-03-07T05:52:54.703Z,16
2017-03-07T05:53:35.201Z,16
2017-03-07T05:54:15.677Z,16
2017-03-07T05:54:56.153Z,20
2017-03-07T05:55:36.633Z,20
2017-03-07T05:56:17.190Z,16
2017-03-07T05:56:57.727Z,24
2017-03-07T05:57:38.274Z,20
2017-03-07T05:58:18.801Z,28
2017-03-07T05:58:59.296Z,32
2017-03-07T05:59:39.710Z,32
2017-03-07T06:00:20.278Z,36
2017-03-07T06:01:00.772Z,40
2017-03-07T06:01:41.266Z,44
2017-03-07T06:02:21.813Z,52
2017-03-07T06:03:02.333Z,56
2017-03-07T06:03:42.812Z,60
2017-03-07T06:04:23.331Z,68
2017-03-07T06:05:03.856Z,76
2017-03-07T06:05:44.489Z,96
2017-03-07T06:06:25.023Z,108
2017-03-07T06:07:05.538Z,124
2017-03-07T06:07:46.044Z,136
2017-03-07T06:10:29.673Z,256
2017-03-07T06:11:17.790Z,300
2017-03-07T06:12:07.041Z,348
2017-03-07T06:12:55.284Z,400
2017-03-07T06:13:44.493Z,436
2017-03-07T06:14:32.483Z,464
2017-03-07T06:15:21.581Z,464
2017-03-07T06:16:10.145Z,444
2017-03-07T06:16:59.967Z,428
2017-03-07T06:19:28.661Z,636
2017-03-07T06:20:17.918Z,740
2017-03-07T06:21:09.558Z,796
2017-03-07T06:21:59.481Z,824
2017-03-07T06:22:47.608Z,832
2017-03-07T06:23:34.413Z,824
2017-03-07T06:24:14.812Z,796
2017-03-07T06:24:55.361Z,780
2017-03-07T06:25:35.800Z,764
2017-03-07T06:26:16.316Z,748
2017-03-07T06:26:56.852Z,740
2017-03-07T06:27:37.294Z,744
2017-03-07T06:28:17.946Z,752
2017-03-07T06:28:58.435Z,752
2017-03-07T06:29:38.924Z,728
2017-03-07T06:30:19.494Z,664
2017-03-07T06:31:00.060Z,620
2017-03-07T06:31:40.762Z,592
2017-03-07T06:32:21.182Z,576
2017-03-07T06:33:01.951Z,592
2017-03-07T06:33:42.400Z,624
2017-03-07T06:34:23.015Z,676
2017-03-07T06:35:03.606Z,692
2017-03-07T06:35:44.110Z,648
2017-03-07T06:36:24.677Z,600
2017-03-07T06:37:05.001Z,628
2017-03-07T06:37:47.264Z,664
2017-03-07T06:38:28.286Z,664
2017-03-07T06:39:08.917Z,636
2017-03-07T06:41:14.554Z,600
2017-03-07T06:42:03.386Z,660
2017-03-07T06:42:51.656Z,648
2017-03-07T06:43:41.260Z,592
2017-03-07T06:44:29.776Z,616
2017-03-07T06:45:18.714Z,584
2017-03-07T06:46:07.441Z,536
2017-03-07T06:46:55.654Z,536
2017-03-07T06:47:46.012Z,524
2017-03-07T06:48:34.175Z,516
2017-03-07T06:49:22.779Z,496
2017-03-07T06:55:17.145Z,680
2017-03-07T06:55:57.582Z,740
2017-03-07T06:56:39.329Z,792
2017-03-07T06:57:18.889Z,844
2017-03-07T06:58:00.200Z,912
2017-03-07T06:58:40.759Z,984
2017-03-07T06:59:21.091Z,1052
2017-03-07T07:00:01.643Z,1112
2017-03-07T07:00:42.122Z,1248
2017-03-07T07:01:23.071Z,1416
2017-03-07T07:02:03.568Z,1532
2017-03-07T07:02:45.521Z,1612
2017-03-07T07:03:26.054Z,1612
2017-03-07T07:04:06.496Z,1392
2017-03-07T07:04:47.004Z,1140
2017-03-07T07:05:27.475Z,1040
2017-03-07T07:06:07.947Z,1064
2017-03-07T07:06:48.451Z,1172
2017-03-07T07:07:28.960Z,1268
2017-03-07T07:08:09.431Z,1240
2017-03-07T07:08:49.915Z,1140
2017-03-07T07:09:30.444Z,1152
2017-03-07T07:10:10.903Z,1232
2017-03-07T07:10:51.709Z,1348
2017-03-07T07:11:32.221Z,1452
2017-03-07T07:12:14.494Z,1512
2017-03-07T07:12:53.603Z,1552
2017-03-07T07:13:34.384Z,1580
2017-03-07T07:14:15.535Z,1616
2017-03-07T07:14:56.272Z,1676
2017-03-07T07:15:36.754Z,1768
2017-03-07T07:16:17.305Z,1840
2017-03-07T07:16:57.803Z,1872
2017-03-07T07:17:40.558Z,1852
2017-03-07T07:18:21.854Z,1852
2017-03-07T07:19:01.540Z,1852
2017-03-07T07:19:42.094Z,1860
2017-03-07T07:20:22.601Z,1872
2017-03-07T07:21:03.106Z,1892
2017-03-07T07:21:44.357Z,1928
2017-03-07T07:22:24.831Z,1920
2017-03-07T07:23:05.356Z,1892
2017-03-07T07:23:45.862Z,1892
2017-03-07T07:24:26.399Z,1840
2017-03-07T07:25:06.889Z,1752
2017-03-07T07:25:47.350Z,1604
2017-03-07T07:26:27.918Z,1460
2017-03-07T07:27:08.441Z,1304
2017-03-07T07:27:49.155Z,1248
2017-03-07T07:28:30.412Z,1268
2017-03-07T07:29:10.435Z,1332
2017-03-07T07:29:55.665Z,1420
2017-03-07T07:30:35.355Z,1504
2017-03-07T07:31:16.463Z,1568
2017-03-07T07:32:00.576Z,1672
2017-03-07T07:32:41.514Z,1712
2017-03-07T07:33:21.972Z,1692
2017-03-07T07:34:07.051Z,1704
2017-03-07T07:34:49.162Z,1784
2017-03-07T07:35:29.748Z,1932
2017-03-07T07:36:11.145Z,2148
2017-03-07T07:36:54.656Z,2420
2017-03-07T07:37:36.452Z,2664
2017-03-07T07:38:17.080Z,3008
2017-03-07T07:38:57.920Z,3304
2017-03-07T07:39:42.022Z,3340
2017-03-07T07:42:02.466Z,3264
2017-03-07T07:42:45.628Z,3388
2017-03-07T07:46:08.433Z,2860
2017-03-07T07:46:57.053Z,2836
2017-03-07T07:47:43.376Z,2780
2017-03-07T07:48:28.820Z,2640
2017-03-07T08:18:41.836Z,6028
2017-03-07T08:33:15.037Z,8080
2017-03-07T08:34:04.008Z,7836
2017-03-07T08:38:37.431Z,6148
2017-03-07T08:39:24.907Z,6196
2017-03-07T08:40:05.798Z,6104
2017-03-07T08:40:46.596Z,5896
2017-03-07T08:41:27.952Z,5544
2017-03-07T08:42:08.537Z,5736
2017-03-07T08:42:49.048Z,6176
2017-03-07T08:43:29.609Z,6508
2017-03-07T08:44:10.029Z,6800
2017-03-07T08:44:50.550Z,6932
2017-03-07T08:45:31.094Z,6968
2017-03-07T08:46:11.639Z,7052
2017-03-07T08:46:52.192Z,7260
2017-03-07T08:47:35.788Z,7448
2017-03-07T08:48:16.303Z,7500
2017-03-07T08:48:56.777Z,7444
2017-03-07T08:49:37.431Z,7300
2017-03-07T08:50:18.131Z,7120
2017-03-07T08:50:58.619Z,6776
2017-03-07T08:51:39.131Z,6484
2017-03-07T08:52:19.700Z,6416
2017-03-07T08:53:00.698Z,6408
2017-03-07T08:53:41.259Z,6484
2017-03-07T08:54:21.771Z,6632
2017-03-07T08:55:02.545Z,6860
2017-03-07T08:55:43.135Z,7116
2017-03-07T09:18:54.717Z,5524
2017-03-07T09:19:45.132Z,5316
2017-03-07T09:27:42.233Z,6644
2017-03-07T09:28:33.114Z,6560
2017-03-07T09:29:10.397Z,6424
2017-03-07T09:29:51.259Z,6236
2017-03-07T09:30:31.767Z,5864
2017-03-07T09:31:12.312Z,5612
2017-03-07T09:31:55.808Z,5684
2017-03-07T09:32:36.397Z,6224
2017-03-07T09:33:17.113Z,7312
2017-03-07T09:33:57.651Z,8464
2017-03-07T09:34:38.265Z,9244
2017-03-07T09:35:19.014Z,9824
2017-03-07T09:35:59.618Z,10072
2017-03-07T09:36:40.243Z,10188
2017-03-07T09:37:20.765Z,10592
2017-03-07T09:38:03.034Z,11244
2017-03-07T09:38:43.621Z,10776
2017-03-07T09:39:24.171Z,9156
2017-03-07T09:40:04.664Z,7536
2017-03-07T09:40:45.165Z,6292
2017-03-07T09:41:25.660Z,5728
2017-03-07T09:42:06.370Z,7060
2017-03-07T09:42:46.922Z,8592
2017-03-07T09:43:27.516Z,8784
2017-03-07T09:44:08.055Z,6856
2017-03-07T09:44:48.592Z,5000
2017-03-07T09:45:29.023Z,3884
2017-03-07T09:46:11.400Z,4388
2017-03-07T09:46:52.090Z,5036
2017-03-07T09:47:32.599Z,5192
2017-03-07T09:48:13.397Z,5928
2017-03-07T09:48:54.233Z,5908
2017-03-07T09:49:35.013Z,5596
2017-03-07T09:50:18.364Z,4752
2017-03-07T09:50:58.797Z,4448
2017-03-07T09:51:42.482Z,4188
2017-03-07T09:52:23.165Z,4428
2017-03-07T09:53:03.666Z,4216
2017-03-07T09:53:44.342Z,4672
2017-03-07T09:54:24.800Z,5488
2017-03-07T09:55:06.354Z,5944
2017-03-07T09:55:46.916Z,6384
2017-03-07T09:56:27.484Z,6836
2017-03-07T09:57:11.560Z,7004
2017-03-07T09:57:52.093Z,8208
2017-03-07T09:58:34.194Z,8328
2017-03-07T09:59:14.786Z,6712
2017-03-07T09:59:55.469Z,7152
2017-03-07T10:00:35.910Z,7056
2017-03-07T10:01:16.719Z,6168
2017-03-07T10:01:57.374Z,5964
2017-03-07T10:02:38.186Z,6372
2017-03-07T10:03:18.533Z,5752
2017-03-07T10:03:59.125Z,4896
2017-03-07T10:04:39.880Z,3380
2017-03-07T10:05:21.168Z,2348
2017-03-07T10:06:01.819Z,2024
2017-03-07T10:06:42.584Z,2180
2017-03-07T10:07:23.098Z,2420
2017-03-07T10:08:03.657Z,2608
2017-03-07T10:08:44.207Z,2768
2017-03-07T10:09:25.838Z,3068
2017-03-07T10:10:07.869Z,3260
2017-03-07T10:10:50.660Z,3064
2017-03-07T10:11:37.940Z,3724
2017-03-07T10:12:18.583Z,4912
2017-03-07T10:12:59.174Z,4616
2017-03-07T10:13:40.036Z,4432
2017-03-07T10:14:20.644Z,3524
2017-03-07T10:15:01.625Z,2792
2017-03-07T10:15:42.088Z,2468
2017-03-07T10:16:22.690Z,2564
2017-03-07T10:17:03.202Z,2472
2017-03-07T10:17:43.743Z,2932
2017-03-07T10:18:27.059Z,3004
2017-03-07T10:22:23.383Z,2812
2017-03-07T10:23:12.023Z,3160
2017-03-07T10:23:59.847Z,3424
2017-03-07T10:24:48.423Z,4200
2017-03-07T10:30:19.891Z,7824
2017-03-07T10:31:09.977Z,7940
2017-03-07T10:35:13.026Z,7996
2017-03-07T10:37:29.511Z,9012
2017-03-07T10:39:53.858Z,11332
2017-03-07T10:40:35.790Z,11124
2017-03-07T10:41:16.593Z,10636
2017-03-07T10:41:57.199Z,9876
2017-03-07T10:42:38.688Z,9660
2017-03-07T10:43:19.140Z,10084
2017-03-07T10:44:02.615Z,10644
2017-03-07T10:44:42.945Z,9300
2017-03-07T10:45:23.527Z,8556
2017-03-07T10:46:04.294Z,9140
2017-03-07T10:46:44.790Z,9396
2017-03-07T10:47:25.316Z,8572
2017-03-07T10:48:05.818Z,8508
2017-03-07T10:48:46.346Z,8684
2017-03-07T10:49:26.815Z,8228
2017-03-07T10:54:40.095Z,9528
2017-03-07T10:55:25.826Z,9920
2017-03-07T10:56:08.906Z,10312
2017-03-07T10:56:49.457Z,11496
2017-03-07T10:57:30.041Z,11236
2017-03-07T10:58:10.836Z,10708
2017-03-07T10:58:51.571Z,11152
2017-03-07T10:59:32.170Z,10984
2017-03-07T11:00:12.738Z,10880
2017-03-07T11:00:53.199Z,11476
2017-03-07T11:01:33.716Z,11508
2017-03-07T11:02:14.655Z,11132
2017-03-07T11:02:55.204Z,10928
2017-03-07T11:03:35.721Z,10372
2017-03-07T11:04:16.925Z,11856
2017-03-07T11:04:59.512Z,11036
2017-03-07T11:05:40.287Z,10168
2017-03-07T11:06:24.626Z,10372
2017-03-07T11:07:08.163Z,11032
2017-03-07T11:07:50.268Z,11552
2017-03-07T11:32:57.863Z,8448
2017-03-07T11:33:38.404Z,8072
2017-03-07T11:34:20.530Z,8704
2017-03-07T11:35:02.578Z,9476
2017-03-07T11:35:44.466Z,10216
2017-03-07T11:40:54.591Z,9464
2017-03-07T11:41:35.177Z,8516
2017-03-07T11:42:15.885Z,7920
2017-03-07T11:42:56.473Z,7564
2017-03-07T11:43:37.205Z,7372
2017-03-07T11:44:17.849Z,7072
2017-03-07T11:44:58.367Z,6696
2017-03-07T11:45:39.774Z,6400
2017-03-07T11:46:20.068Z,6036
2017-03-07T11:47:00.871Z,5676
2017-03-07T11:47:42.068Z,5508
2017-03-07T11:48:22.539Z,5516
2017-03-07T11:49:03.072Z,5904
2017-03-07T11:49:44.684Z,6176
2017-03-07T11:50:28.414Z,6456
2017-03-07T11:51:13.156Z,6836
2017-03-07T11:51:52.984Z,7324
2017-03-07T11:52:34.052Z,7836
2017-03-07T11:53:15.630Z,8100
2017-03-07T11:53:56.420Z,8292
2017-03-07T11:54:40.049Z,8324
2017-03-07T11:57:05.583Z,9160
2017-03-07T12:01:59.993Z,8544
2017-03-07T12:05:32.299Z,6540
2017-03-07T12:06:17.564Z,7064
2017-03-07T12:06:57.819Z,6912
2017-03-07T12:07:38.349Z,5896
2017-03-07T12:08:19.189Z,5328
2017-03-07T12:08:59.841Z,4604
2017-03-07T12:09:40.387Z,4300
2017-03-07T12:10:21.875Z,4152
2017-03-07T12:11:02.646Z,4216
2017-03-07T12:11:43.188Z,4392
2017-03-07T12:12:23.724Z,5472
2017-03-07T12:13:04.283Z,7908
2017-03-07T12:13:44.722Z,9780
2017-03-07T12:14:25.993Z,9800
2017-03-07T12:15:09.368Z,9556
2017-03-07T12:15:49.902Z,9444
2017-03-07T12:16:30.427Z,9652
2017-03-07T12:17:11.112Z,9448
2017-03-07T12:17:51.609Z,8668
2017-03-07T12:18:32.134Z,8196
2017-03-07T12:19:13.663Z,8256
2017-03-07T12:19:54.118Z,8044
2017-03-07T12:20:35.502Z,8180
2017-03-07T12:21:15.106Z,8624
2017-03-07T12:21:55.592Z,9388
2017-03-07T12:22:36.145Z,10176
2017-03-07T12:23:16.577Z,10420
2017-03-07T12:23:57.078Z,10548
2017-03-07T12:24:38.392Z,11380
2017-03-07T12:25:18.886Z,10716
2017-03-07T12:25:59.397Z,10376
2017-03-07T12:26:39.922Z,9636
2017-03-07T12:27:20.453Z,9472
2017-03-07T12:28:00.895Z,9664
2017-03-07T12:28:41.419Z,9876